Gualala, CA

11:22 AM PDT on August 28, 2016 (GMT -0700)
Ocean Ridge Gualala | | Change Station

Elev 932 ft 38.80 °N, 123.54 °W | Updated 8 minutes ago

Partly Cloudy
Partly Cloudy
56.1 °F
Feels Like 56.1 °F
N
0.0
Wind Variable Wind from South

Today
High -- | Low -- °F
--% Chance of Precip.
Yesterday
High -- | Low -- °F
Precip. -- in
Pressure 30.08 in
Visibility 10.0 miles
Clouds Few 1000 ft
Dew Point 55 °F
Humidity 96%
Rainfall 0.00 in
Snow Depth Not available.
6:40 AM 7:49 PM
Waning Crescent, 14% visible
METAR KUKI 281756Z AUTO 00000KT 10SM FEW010 17/12 A3009 RMK AO2 SLP184 T01720122 10172 20133 50003
Pressure 30.08 in
Visibility 10.0 miles
Clouds Few 1000 ft
Dew Point 55 °F
Humidity 96%
Rainfall 0.00 in
Snow Depth Not available.
6:40 AM 7:49 PM
Waning Crescent, 14% visible
METAR KUKI 281756Z AUTO 00000KT 10SM FEW010 17/12 A3009 RMK AO2 SLP184 T01720122 10172 20133 50003

10-Day Weather Forecast

Almanac

Astronomy

Aug. 28, 2016 Rise Set
Actual Time
Civil Twilight
Nautical Twilight
Astronomical Twilight
Moon
Length of Visible Light
Length of Day
Tomorrow will be .
, % of the Moon is Illuminated

Today's Extremes

State Highs State Lows

Community

WunderPhotos

Upload Photos

1,935,644 photos uploaded!

WunderBlog® & News

Nearby

Air Quality

  Air Quality AQ Index Pollutant
Not available.

Snow Depth

Station Depth Elevation

Earthquake Activity

City Distance Mag. Time & Date
Minimum magnitude displayed is 2.5.

Coastal Water Temperatures

Place Temperature

Stations

Nearby Weather Stations

Station Location Temp. Windchill Dew Point Humidity Wind Precip. Elev Updated Type
                   

Watches & Warnings

There are currently no watches in effect.